createdAt,value
2024-05-09T00:04:13.787Z,11.65
2024-05-09T00:09:15.235Z,13.48
2024-05-09T00:14:16.679Z,11.97
2024-05-09T00:19:18.253Z,12.18
2024-05-09T00:24:19.843Z,16.07
2024-05-09T00:29:21.881Z,13.48
2024-05-09T00:34:23.964Z,11.63
2024-05-09T00:39:25.498Z,11.23
2024-05-09T00:44:26.997Z,10.23
2024-05-09T00:49:28.681Z,15.83
2024-05-09T00:54:30.689Z,12.15
2024-05-09T00:59:33.161Z,11.48
2024-05-09T01:04:34.756Z,11.77
2024-05-09T01:09:36.177Z,11.40
2024-05-09T01:14:37.622Z,12.90
2024-05-09T01:19:39.295Z,10.90
2024-05-09T01:24:40.794Z,10.23
2024-05-09T01:29:42.202Z,11.63
2024-05-09T01:34:43.625Z,10.38
2024-05-09T01:39:45.063Z,14.13
2024-05-09T01:44:46.934Z,10.93
2024-05-09T01:49:48.403Z,10.45
2024-05-09T01:54:49.801Z,11.07
2024-05-09T01:59:51.209Z,17.88
2024-05-09T02:04:52.677Z,11.33
2024-05-09T02:09:54.280Z,11.20
2024-05-09T02:14:55.721Z,20.45
2024-05-09T02:19:57.168Z,14.77
2024-05-09T02:24:58.612Z,11.85
2024-05-09T02:30:00.007Z,13.73
2024-05-09T02:35:01.612Z,15.27
2024-05-09T02:40:03.433Z,13.38
2024-05-09T02:45:05.996Z,14.17
2024-05-09T02:50:08.294Z,12.90
2024-05-09T02:55:09.835Z,13.43
2024-05-09T03:00:18.509Z,12.77
2024-05-09T03:05:23.970Z,11.30
2024-05-09T03:10:28.725Z,13.37
2024-05-09T03:15:33.753Z,15.73
2024-05-09T03:20:36.376Z,16.03
2024-05-09T03:25:38.869Z,13.38
2024-05-09T03:30:42.850Z,13.32
2024-05-09T03:35:44.829Z,13.90
2024-05-09T03:40:50.209Z,12.60
2024-05-09T03:45:52.167Z,11.70
2024-05-09T03:50:53.655Z,13.27
2024-05-09T03:55:56.857Z,13.13
2024-05-09T04:00:58.345Z,11.23
2024-05-09T04:05:59.816Z,12.95
2024-05-09T04:11:01.521Z,10.33
2024-05-09T04:16:03.106Z,12.15
2024-05-09T04:21:05.131Z,11.85
2024-05-09T04:26:08.511Z,13.50
2024-05-09T04:31:09.972Z,12.35
2024-05-09T04:36:11.408Z,14.73
2024-05-09T04:41:12.889Z,12.35
2024-05-09T04:46:14.679Z,14.10
2024-05-09T04:51:16.149Z,13.13
2024-05-09T04:56:17.809Z,14.63
2024-05-09T05:01:19.427Z,12.80
2024-05-09T05:06:20.868Z,11.80
2024-05-09T05:11:22.515Z,12.05
2024-05-09T05:16:23.940Z,12.27
2024-05-09T05:21:25.816Z,12.32
2024-05-09T05:26:27.652Z,12.47
2024-05-09T05:31:29.126Z,11.25
2024-05-09T05:36:30.545Z,14.43
2024-05-09T05:41:32.003Z,13.23
2024-05-09T05:46:33.452Z,13.75
2024-05-09T05:51:34.848Z,13.10
2024-05-09T05:56:36.407Z,13.25
2024-05-09T06:01:37.967Z,14.43
2024-05-09T06:06:39.687Z,20.70
2024-05-09T06:11:41.967Z,13.82
2024-05-09T06:16:43.550Z,13.70
2024-05-09T06:21:45.007Z,15.13
2024-05-09T06:26:46.478Z,16.70
2024-05-09T06:31:47.937Z,16.40
2024-05-09T06:36:49.388Z,12.57
2024-05-09T06:41:51.121Z,12.60
2024-05-09T06:46:53.330Z,14.10
2024-05-09T06:51:55.679Z,12.00
2024-05-09T06:56:57.138Z,13.65
2024-05-09T07:01:58.549Z,23.87
2024-05-09T07:06:59.942Z,13.93
2024-05-09T07:12:01.546Z,12.82
2024-05-09T07:17:03.280Z,16.27
2024-05-09T07:22:04.756Z,12.25
2024-05-09T07:27:06.194Z,9.60
2024-05-09T07:32:08.910Z,9.17
2024-05-09T07:37:12.730Z,10.33
2024-05-09T07:42:14.245Z,9.73
2024-05-09T07:48:28.900Z,9.40
2024-05-09T07:53:33.690Z,8.10
2024-05-09T07:57:59.574Z,8.02
2024-05-09T08:03:01.179Z,12.50
2024-05-09T08:08:02.663Z,9.30
2024-05-09T08:13:04.326Z,12.38
2024-05-09T08:18:12.317Z,11.73
2024-05-09T08:23:13.899Z,12.43
2024-05-09T08:28:15.878Z,10.50
2024-05-09T08:33:17.514Z,13.95
2024-05-09T08:38:19.004Z,8.75
2024-05-09T08:43:20.590Z,8.90
2024-05-09T08:48:23.402Z,7.82
2024-05-09T08:53:25.176Z,11.35
2024-05-09T08:58:27.188Z,8.97
2024-05-09T09:03:30.109Z,11.55
2024-05-09T09:08:31.746Z,8.32
2024-05-09T09:13:33.196Z,7.90
2024-05-09T09:18:34.945Z,7.67
2024-05-09T09:23:36.530Z,7.20
2024-05-09T09:28:38.177Z,7.82
2024-05-09T09:33:42.668Z,7.10
2024-05-09T09:38:46.018Z,6.75
2024-05-09T09:43:48.550Z,7.68
2024-05-09T09:48:51.107Z,10.77
2024-05-09T09:53:52.719Z,7.10
2024-05-09T09:58:55.777Z,7.72
2024-05-09T10:03:57.611Z,7.00
2024-05-09T10:08:59.485Z,7.87
2024-05-09T10:14:01.063Z,8.93
2024-05-09T10:19:02.646Z,7.93
2024-05-09T10:24:04.813Z,7.83
2024-05-09T10:29:12.881Z,8.32
2024-05-09T10:34:18.450Z,5.75
2024-05-09T10:39:24.822Z,6.50
2024-05-09T10:44:26.226Z,8.38
2024-05-09T10:49:27.919Z,9.48
2024-05-09T10:54:35.301Z,8.03
2024-05-09T10:59:39.259Z,7.17
2024-05-09T11:04:41.008Z,8.77
2024-05-09T11:09:43.158Z,7.00
2024-05-09T11:15:02.613Z,6.70
2024-05-09T11:20:10.492Z,7.38
2024-05-09T11:25:15.071Z,7.68
2024-05-09T11:35:24.066Z,9.00
2024-05-09T11:40:32.015Z,9.57
2024-05-09T11:45:35.643Z,6.90
2024-05-09T11:50:37.401Z,11.50
2024-05-09T11:55:38.891Z,7.57
2024-05-09T12:00:40.400Z,7.68
2024-05-09T12:05:42.106Z,7.97
2024-05-09T12:10:43.838Z,8.10
2024-05-09T12:15:45.419Z,7.32
2024-05-09T12:20:46.851Z,7.40
2024-05-09T12:25:48.275Z,7.30
2024-05-09T12:30:50.668Z,8.35
2024-05-09T12:35:52.184Z,9.33
2024-05-09T12:40:54.049Z,10.73
2024-05-09T12:45:55.912Z,11.63
2024-05-09T12:50:57.739Z,6.68
2024-05-09T12:56:02.357Z,7.70
2024-05-09T13:01:05.291Z,8.63
2024-05-09T13:06:06.866Z,8.57
2024-05-09T13:11:08.454Z,6.97
2024-05-09T13:16:09.957Z,8.45
2024-05-09T13:21:11.397Z,8.27
2024-05-09T13:26:12.907Z,7.70
2024-05-09T13:31:14.378Z,8.80
2024-05-09T13:36:15.907Z,6.88
2024-05-09T13:41:17.331Z,7.72
2024-05-09T13:46:18.950Z,8.87
2024-05-09T13:51:20.566Z,6.72
2024-05-09T13:56:22.130Z,6.53
2024-05-09T14:01:23.678Z,9.37
2024-05-09T14:06:25.213Z,6.72
2024-05-09T14:11:26.856Z,9.68
2024-05-09T14:16:30.006Z,7.57
2024-05-09T14:21:31.596Z,6.37
2024-05-09T14:26:33.114Z,7.35
2024-05-09T14:31:36.932Z,6.28
2024-05-09T14:36:40.085Z,8.20
2024-05-09T14:41:41.635Z,7.65
2024-05-09T14:46:43.053Z,7.82
2024-05-09T14:51:47.081Z,8.30
2024-05-09T14:56:48.557Z,6.80
2024-05-09T15:01:50.122Z,7.15
2024-05-09T15:06:51.898Z,7.30
2024-05-09T15:11:53.686Z,6.07
2024-05-09T15:16:55.222Z,8.82
2024-05-09T15:21:56.744Z,6.05
2024-05-09T15:26:58.212Z,8.97
2024-05-09T15:31:59.703Z,6.15
2024-05-09T15:37:01.677Z,9.20
2024-05-09T15:42:03.175Z,7.67
2024-05-09T15:47:04.578Z,7.90
2024-05-09T15:52:06.117Z,7.18
2024-05-09T15:57:08.443Z,6.47
2024-05-09T16:07:12.742Z,6.70
2024-05-09T16:12:14.184Z,7.20
2024-05-09T16:17:15.721Z,7.10
2024-05-09T16:22:17.366Z,5.90
2024-05-09T16:27:19.151Z,6.97
2024-05-09T16:32:20.584Z,7.97
2024-05-09T16:37:22.159Z,9.63
2024-05-09T16:42:23.616Z,15.80
2024-05-09T16:47:25.194Z,7.30
2024-05-09T16:52:26.688Z,11.43
2024-05-09T16:57:28.144Z,8.40
2024-05-09T17:02:30.836Z,6.57
2024-05-09T17:07:32.624Z,7.80
2024-05-09T17:12:34.442Z,6.95
2024-05-09T17:17:36.078Z,6.68
2024-05-09T17:22:37.564Z,5.87
2024-05-09T17:27:39.166Z,8.25
2024-05-09T17:32:40.699Z,7.43
2024-05-09T17:37:42.153Z,6.13
2024-05-09T17:42:43.575Z,6.43
2024-05-09T17:47:45.120Z,11.85
2024-05-09T17:52:46.651Z,7.05
2024-05-09T17:57:48.146Z,10.10
2024-05-09T18:02:49.681Z,8.18
2024-05-09T18:07:51.120Z,7.35
2024-05-09T18:13:47.233Z,9.03
2024-05-09T18:18:48.898Z,6.32
2024-05-09T18:23:53.972Z,7.32
2024-05-09T18:28:56.268Z,6.73
2024-05-09T18:33:57.792Z,6.72
2024-05-09T18:38:59.263Z,7.47
2024-05-09T18:44:00.735Z,8.93
2024-05-09T18:49:02.284Z,6.73
2024-05-09T18:54:03.896Z,8.60
2024-05-09T18:59:05.622Z,9.23
2024-05-09T19:04:07.309Z,11.37
2024-05-09T19:09:08.982Z,12.98
2024-05-09T19:14:10.389Z,9.70
2024-05-09T19:19:12.063Z,8.47
2024-05-09T19:24:16.558Z,14.07
2024-05-09T19:29:17.963Z,23.33
2024-05-09T19:34:19.556Z,17.27
2024-05-09T19:39:20.982Z,14.43
2024-05-09T19:44:22.413Z,8.35
2024-05-09T19:49:23.948Z,7.90
2024-05-09T19:54:25.526Z,7.90
2024-05-09T19:59:26.953Z,7.18
2024-05-09T20:04:28.660Z,8.00
2024-05-09T20:09:30.269Z,11.00
2024-05-09T20:14:31.656Z,7.20
2024-05-09T20:19:33.188Z,8.50
2024-05-09T20:24:34.692Z,9.00
2024-05-09T20:29:36.161Z,11.27
2024-05-09T20:34:37.629Z,10.85
2024-05-09T20:39:39.048Z,9.75
2024-05-09T20:44:40.578Z,8.77
2024-05-09T20:49:42.205Z,14.57
2024-05-09T20:54:43.737Z,13.17
2024-05-09T20:59:45.182Z,11.50
2024-05-09T21:04:46.824Z,7.45
2024-05-09T21:09:48.378Z,8.43
2024-05-09T21:14:49.863Z,10.18
2024-05-09T21:19:51.518Z,7.77
2024-05-09T21:24:53.007Z,10.05
2024-05-09T21:29:54.510Z,9.18
2024-05-09T21:34:55.928Z,9.57
2024-05-09T21:39:57.533Z,8.07
2024-05-09T21:44:58.965Z,9.13
2024-05-09T21:50:00.434Z,8.02
2024-05-09T21:55:01.908Z,7.97
2024-05-09T22:00:20.345Z,8.50
2024-05-09T22:05:26.657Z,8.43
2024-05-09T22:10:33.919Z,9.40
2024-05-09T22:15:39.432Z,8.85
2024-05-09T22:20:45.365Z,8.75
2024-05-09T22:25:48.193Z,7.80
2024-05-09T22:30:50.581Z,9.65
2024-05-09T22:35:52.050Z,8.37
2024-05-09T22:40:53.464Z,10.13
2024-05-09T22:45:55.498Z,8.57
2024-05-09T22:50:57.159Z,10.07
2024-05-09T22:55:58.611Z,10.27
2024-05-09T23:01:00.214Z,9.80
2024-05-09T23:06:05.454Z,10.02
2024-05-09T23:11:06.981Z,10.85
2024-05-09T23:16:08.553Z,7.73
2024-05-09T23:21:09.967Z,9.40
2024-05-09T23:26:11.373Z,9.73
2024-05-09T23:31:12.795Z,8.43
2024-05-09T23:36:14.210Z,9.32
2024-05-09T23:41:15.620Z,9.70
2024-05-09T23:46:17.096Z,8.82
2024-05-09T23:51:18.536Z,8.77
2024-05-09T23:56:21.526Z,12.00
